Time;durP1;ratioP1;P1;durP2;ratioP2;P2;SDS_P1;SDS_P2;PMS_P1;PMS_P2;Temp;Humidity;BMP_temperature;BMP_pressure;BME280_temperature;BME280_humidity;BME280_pressure;Samples;Min_cycle;Max_cycle;Signal;HPM_P1;HPM_P2
2022/02/28 00:00:35;;;;;;;5.53;2.00;;;1.80;99.90;;;;;;5013447;28;20596;-88
2022/02/28 00:03:04;;;;;;;5.72;2.22;;;1.80;99.90;;;;;;5016431;28;20065;-88
2022/02/28 00:05:31;;;;;;;5.60;2.30;;;1.70;99.90;;;;;;5016173;28;20022;-89
2022/02/28 00:07:56;;;;;;;7.38;2.35;;;1.70;99.90;;;;;;5016287;28;20026;-88
2022/02/28 00:10:23;;;;;;;9.77;2.55;;;1.60;99.90;;;;;;5012881;28;20030;-89
2022/02/28 00:12:49;;;;;;;5.57;2.42;;;1.60;99.90;;;;;;5015776;28;20514;-89
2022/02/28 00:15:16;;;;;;;6.65;2.47;;;1.50;99.90;;;;;;5015486;28;20107;-89
2022/02/28 00:17:42;;;;;;;8.88;2.15;;;1.40;99.90;;;;;;5023444;28;20079;-88
2022/02/28 00:20:11;;;;;;;8.43;2.78;;;1.40;99.90;;;;;;5013191;28;20421;-89
2022/02/28 00:22:37;;;;;;;8.52;2.05;;;1.40;99.90;;;;;;5014794;28;20034;-89
2022/02/28 00:25:07;;;;;;;5.35;2.00;;;1.40;99.90;;;;;;5015258;28;20038;-88
2022/02/28 00:27:33;;;;;;;6.72;2.47;;;1.40;99.90;;;;;;5016016;28;20033;-88
2022/02/28 00:29:59;;;;;;;5.00;2.35;;;1.40;99.90;;;;;;5015858;28;20113;-89
2022/02/28 00:32:26;;;;;;;5.03;2.22;;;1.30;99.90;;;;;;5018110;28;20023;-88
2022/02/28 00:34:52;;;;;;;5.22;2.75;;;1.40;99.90;;;;;;5014809;28;20046;-89
2022/02/28 00:37:18;;;;;;;8.30;2.60;;;1.30;99.90;;;;;;5015773;28;20033;-88
2022/02/28 00:39:45;;;;;;;6.95;2.55;;;1.30;99.90;;;;;;5014134;28;20462;-88
2022/02/28 00:42:10;;;;;;;6.07;2.67;;;1.30;99.90;;;;;;4998418;28;20061;-89
2022/02/28 00:44:36;;;;;;;7.85;2.75;;;1.30;99.90;;;;;;5009749;28;20474;-88
2022/02/28 00:47:03;;;;;;;7.78;2.70;;;1.40;99.90;;;;;;5015493;28;20036;-88
2022/02/28 00:49:29;;;;;;;8.05;2.75;;;1.40;99.90;;;;;;5015557;28;20010;-89
2022/02/28 00:51:54;;;;;;;6.15;2.42;;;1.40;99.90;;;;;;5018782;28;20060;-89
2022/02/28 00:54:20;;;;;;;7.68;3.05;;;1.50;99.90;;;;;;5018550;28;20541;-89
2022/02/28 00:56:45;;;;;;;6.45;2.42;;;1.50;99.90;;;;;;5009972;28;20029;-89
2022/02/28 00:59:11;;;;;;;8.70;2.95;;;1.50;99.90;;;;;;5009334;28;20058;-88
2022/02/28 01:01:37;;;;;;;6.05;2.20;;;1.50;99.90;;;;;;5015427;28;21719;-89
2022/02/28 01:04:04;;;;;;;10.25;2.70;;;1.50;99.90;;;;;;5018351;28;20079;-89
2022/02/28 01:06:30;;;;;;;6.93;2.55;;;1.50;99.90;;;;;;5018696;28;20099;-89
2022/02/28 01:08:56;;;;;;;7.25;2.33;;;1.50;99.90;;;;;;5018691;28;20025;-89
2022/02/28 01:11:21;;;;;;;9.40;2.53;;;1.50;99.90;;;;;;5016491;28;20157;-88
2022/02/28 01:13:47;;;;;;;7.80;3.03;;;1.50;99.90;;;;;;5017869;28;20029;-89
2022/02/28 01:16:12;;;;;;;8.10;2.45;;;1.50;99.90;;;;;;5003172;28;20038;-89
2022/02/28 01:18:38;;;;;;;5.82;2.55;;;1.50;99.90;;;;;;5017912;28;20061;-89
2022/02/28 01:21:04;;;;;;;7.68;2.45;;;1.50;99.90;;;;;;5010644;28;20022;-89
2022/02/28 01:23:30;;;;;;;7.03;2.72;;;1.50;99.90;;;;;;5015387;28;20505;-89
2022/02/28 01:25:55;;;;;;;4.05;1.75;;;1.60;99.90;;;;;;5016288;28;20121;-88
2022/02/28 01:28:21;;;;;;;5.28;2.10;;;1.50;99.90;;;;;;5018559;28;20371;-88
2022/02/28 01:30:47;;;;;;;7.15;2.42;;;1.50;99.90;;;;;;5017631;28;20080;-89
2022/02/28 01:33:12;;;;;;;5.75;2.60;;;1.60;99.90;;;;;;5016580;28;20116;-88
2022/02/28 01:35:38;;;;;;;6.65;2.88;;;1.60;99.90;;;;;;5018354;28;20033;-89
2022/02/28 01:38:05;;;;;;;7.43;2.65;;;1.60;99.90;;;;;;5016896;28;20495;-88
2022/02/28 01:40:31;;;;;;;5.05;2.22;;;1.60;99.90;;;;;;5016693;28;20029;-88
2022/02/28 01:42:57;;;;;;;8.65;2.40;;;1.50;99.90;;;;;;5035166;28;20489;-88
2022/02/28 01:45:22;;;;;;;8.60;2.78;;;1.50;99.90;;;;;;5014444;28;20237;-88
2022/02/28 01:47:53;;;;;;;7.30;2.80;;;1.40;99.90;;;;;;5035644;28;20461;-88
2022/02/28 01:50:20;;;;;;;5.20;2.03;;;1.40;99.90;;;;;;5028270;28;20045;-88
2022/02/28 01:52:48;;;;;;;5.75;2.67;;;1.40;99.90;;;;;;5018215;28;20030;-88
2022/02/28 01:55:17;;;;;;;8.60;3.00;;;1.40;99.90;;;;;;5009564;28;20445;-89
2022/02/28 01:57:43;;;;;;;10.73;3.33;;;1.40;99.90;;;;;;5003910;28;20485;-89
2022/02/28 02:00:12;;;;;;;3.92;2.38;;;1.40;99.90;;;;;;5017103;28;20030;-89
2022/02/28 02:02:37;;;;;;;8.13;2.88;;;1.40;99.90;;;;;;5017874;28;20220;-89
2022/02/28 02:05:04;;;;;;;10.65;2.88;;;1.30;99.90;;;;;;5017793;28;20045;-89
2022/02/28 02:07:30;;;;;;;9.20;2.25;;;1.30;99.90;;;;;;5017716;28;20030;-88
2022/02/28 02:09:58;;;;;;;7.88;2.33;;;1.30;99.90;;;;;;5017685;28;20035;-88
2022/02/28 02:12:26;;;;;;;10.27;3.67;;;1.30;99.90;;;;;;5016534;28;20037;-88
2022/02/28 02:14:53;;;;;;;7.50;2.20;;;1.30;99.90;;;;;;5017110;28;20026;-88
2022/02/28 02:17:18;;;;;;;10.25;3.15;;;1.20;99.90;;;;;;5034875;28;20060;-88
2022/02/28 02:19:45;;;;;;;9.55;2.70;;;1.20;99.90;;;;;;5017143;28;20017;-88
2022/02/28 02:22:14;;;;;;;5.43;2.55;;;1.20;99.90;;;;;;5014287;28;20172;-88
2022/02/28 02:24:40;;;;;;;7.10;2.40;;;1.10;99.90;;;;;;5016435;28;20030;-89
2022/02/28 02:27:05;;;;;;;6.72;2.78;;;1.20;99.90;;;;;;5017104;28;20028;-88
2022/02/28 02:29:38;;;;;;;4.50;2.20;;;1.10;99.90;;;;;;5015421;28;20425;-88
2022/02/28 02:32:16;;;;;;;7.70;2.75;;;1.10;99.90;;;;;;5012127;28;20116;-88
2022/02/28 02:34:42;;;;;;;6.95;2.45;;;1.00;99.90;;;;;;5014009;28;20030;-89
2022/02/28 02:37:08;;;;;;;10.45;2.95;;;1.00;99.90;;;;;;5016931;28;20095;-88
2022/02/28 02:39:39;;;;;;;7.82;2.35;;;1.00;99.90;;;;;;5016187;28;20040;-88
2022/02/28 02:42:04;;;;;;;7.32;2.95;;;1.00;99.90;;;;;;5009014;28;20092;-87
2022/02/28 02:44:31;;;;;;;7.53;2.47;;;1.00;99.90;;;;;;5019593;28;20033;-88
2022/02/28 02:46:57;;;;;;;12.20;3.13;;;1.00;99.90;;;;;;5008263;28;20028;-89
2022/02/28 02:49:23;;;;;;;7.60;2.80;;;1.00;99.90;;;;;;5012644;28;20340;-89
2022/02/28 02:51:48;;;;;;;9.48;2.88;;;1.00;99.90;;;;;;5016631;28;20499;-88
2022/02/28 02:54:14;;;;;;;9.80;2.38;;;0.90;99.90;;;;;;5018487;28;20021;-88
2022/02/28 02:56:40;;;;;;;4.78;2.47;;;1.00;99.90;;;;;;5016279;28;20029;-88
2022/02/28 02:59:06;;;;;;;8.18;2.72;;;1.00;99.90;;;;;;5015965;28;20536;-88
2022/02/28 03:01:35;;;;;;;9.55;2.17;;;1.00;99.90;;;;;;5013437;28;20108;-89
2022/02/28 03:04:01;;;;;;;10.73;2.58;;;1.00;99.90;;;;;;5014958;28;20504;-88
2022/02/28 03:06:27;;;;;;;4.45;2.45;;;1.10;99.90;;;;;;5015950;28;20037;-88
2022/02/28 03:08:54;;;;;;;11.88;2.72;;;1.00;99.90;;;;;;5016591;28;20143;-88
2022/02/28 03:11:19;;;;;;;6.63;2.50;;;1.00;99.90;;;;;;5005887;28;20025;-89
2022/02/28 03:13:45;;;;;;;11.57;4.20;;;1.00;99.90;;;;;;5002660;28;20557;-88
2022/02/28 03:16:11;;;;;;;9.70;3.05;;;1.00;99.90;;;;;;5016301;28;20026;-89
2022/02/28 03:18:36;;;;;;;11.43;3.65;;;1.00;99.90;;;;;;5016506;28;20033;-88
2022/02/28 03:21:02;;;;;;;6.18;2.50;;;0.90;99.90;;;;;;5015017;28;20068;-88
2022/02/28 03:23:28;;;;;;;7.85;3.20;;;0.80;99.90;;;;;;5015987;28;20049;-88
2022/02/28 03:25:54;;;;;;;6.80;2.92;;;0.70;99.90;;;;;;5015858;28;20040;-88
2022/02/28 03:28:20;;;;;;;11.20;3.42;;;0.70;99.90;;;;;;5015841;28;20029;-88
2022/02/28 03:30:46;;;;;;;8.55;2.90;;;0.60;99.90;;;;;;5015826;28;20022;-88
2022/02/28 03:33:11;;;;;;;7.28;2.70;;;0.60;99.90;;;;;;5015131;28;20116;-89
2022/02/28 03:35:37;;;;;;;5.65;2.80;;;0.60;99.90;;;;;;5018908;28;20445;-88
2022/02/28 03:38:03;;;;;;;7.45;3.28;;;0.60;99.90;;;;;;5032907;28;20029;-87
2022/02/28 03:40:29;;;;;;;9.73;3.58;;;0.50;99.90;;;;;;5019379;28;20037;-89
2022/02/28 03:42:57;;;;;;;7.47;3.13;;;0.50;99.90;;;;;;5019590;28;20136;-88
2022/02/28 03:45:23;;;;;;;8.18;3.03;;;0.50;99.90;;;;;;5016670;28;20025;-88
2022/02/28 03:47:49;;;;;;;7.25;3.35;;;0.40;99.90;;;;;;5016664;28;20076;-88
2022/02/28 03:50:14;;;;;;;7.43;3.15;;;0.40;99.90;;;;;;5019527;28;20029;-88
2022/02/28 03:52:40;;;;;;;9.40;3.13;;;0.30;99.90;;;;;;5011549;28;20029;-88
2022/02/28 03:55:05;;;;;;;8.60;3.72;;;0.30;99.90;;;;;;5018947;28;20033;-88
2022/02/28 03:57:31;;;;;;;8.88;3.35;;;0.20;99.90;;;;;;5017288;28;20026;-88
2022/02/28 03:59:56;;;;;;;10.38;3.05;;;0.10;99.90;;;;;;5008680;28;20112;-88
2022/02/28 04:02:22;;;;;;;10.73;3.28;;;0.10;99.90;;;;;;5019466;28;20139;-88
2022/02/28 04:04:48;;;;;;;12.30;3.83;;;0.00;99.90;;;;;;5015895;28;20034;-88
2022/02/28 04:07:13;;;;;;;7.38;3.88;;;0.00;99.90;;;;;;5017497;28;20026;-88
2022/02/28 04:09:39;;;;;;;8.80;3.92;;;-0.10;99.90;;;;;;5019103;28;20528;-88
2022/02/28 04:12:06;;;;;;;10.32;3.40;;;-0.10;99.90;;;;;;5019050;28;20022;-88
2022/02/28 04:14:32;;;;;;;8.10;3.75;;;-0.10;99.90;;;;;;5017378;28;20033;-88
2022/02/28 04:16:58;;;;;;;10.45;3.97;;;-0.10;99.90;;;;;;5031291;28;20057;-89
2022/02/28 04:19:23;;;;;;;9.18;3.45;;;-0.20;99.90;;;;;;5019056;28;20591;-88
2022/02/28 04:21:49;;;;;;;9.25;4.22;;;-0.20;99.90;;;;;;5014480;28;20108;-88
2022/02/28 04:24:14;;;;;;;9.68;3.60;;;-0.20;99.90;;;;;;5011793;28;20496;-88
2022/02/28 04:26:40;;;;;;;9.57;4.45;;;-0.20;99.90;;;;;;5011276;28;20026;-88
2022/02/28 04:29:06;;;;;;;7.60;3.50;;;-0.30;99.90;;;;;;5018222;28;20036;-88
2022/02/28 04:31:32;;;;;;;8.82;4.22;;;-0.40;99.90;;;;;;5018412;28;20367;-88
2022/02/28 04:33:58;;;;;;;9.30;3.92;;;-0.40;99.90;;;;;;5018793;28;20056;-88
2022/02/28 04:36:23;;;;;;;13.45;4.95;;;-0.40;99.90;;;;;;5018952;28;20424;-88
2022/02/28 04:38:49;;;;;;;12.13;4.18;;;-0.50;99.90;;;;;;5019205;28;20029;-89
2022/02/28 04:41:14;;;;;;;9.20;3.90;;;-0.60;99.90;;;;;;5013667;28;20037;-88
2022/02/28 04:43:40;;;;;;;9.07;4.45;;;-0.60;99.90;;;;;;5015033;28;20101;-87
2022/02/28 04:46:05;;;;;;;10.73;4.10;;;-0.60;99.90;;;;;;5015301;28;20033;-88
2022/02/28 04:48:31;;;;;;;7.40;4.60;;;-0.70;99.90;;;;;;5008965;28;20030;-88
2022/02/28 04:50:57;;;;;;;8.88;3.85;;;-0.70;99.90;;;;;;5015023;28;20034;-89
2022/02/28 04:53:23;;;;;;;10.73;4.22;;;-0.70;99.90;;;;;;5015743;28;20029;-88
2022/02/28 04:55:50;;;;;;;13.00;4.57;;;-0.70;99.90;;;;;;5011590;28;20383;-88
2022/02/28 04:58:16;;;;;;;12.10;4.43;;;-0.70;99.90;;;;;;4999587;28;20053;-88
2022/02/28 05:00:42;;;;;;;11.20;4.65;;;-0.60;99.90;;;;;;5015514;28;20109;-88
2022/02/28 05:03:07;;;;;;;11.80;5.15;;;-0.70;99.90;;;;;;5015053;28;20069;-88
2022/02/28 05:05:34;;;;;;;10.57;4.85;;;-0.60;99.90;;;;;;5012212;28;20080;-88
2022/02/28 05:08:00;;;;;;;8.68;4.57;;;-0.60;99.90;;;;;;5014454;28;20030;-88
2022/02/28 05:10:25;;;;;;;8.38;4.47;;;-0.60;99.90;;;;;;5014996;28;20040;-88
2022/02/28 05:12:51;;;;;;;9.38;4.22;;;-0.50;99.90;;;;;;5014776;28;20013;-88
2022/02/28 05:15:17;;;;;;;9.15;4.40;;;-0.60;99.90;;;;;;5011439;28;20025;-88
2022/02/28 05:17:42;;;;;;;11.27;4.65;;;-0.50;99.90;;;;;;5018713;28;20032;-88
2022/02/28 05:20:08;;;;;;;12.80;4.10;;;-0.50;99.90;;;;;;5014174;28;20022;-88
2022/02/28 05:22:34;;;;;;;11.63;4.68;;;-0.50;99.90;;;;;;5030169;28;20401;-88
2022/02/28 05:24:59;;;;;;;11.55;4.35;;;-0.50;99.90;;;;;;5011021;28;20038;-88
2022/02/28 05:27:25;;;;;;;8.40;4.65;;;-0.50;99.90;;;;;;5005334;28;20034;-88
2022/02/28 05:29:50;;;;;;;11.23;4.15;;;-0.50;99.90;;;;;;5005394;28;20034;-88
2022/02/28 05:32:16;;;;;;;9.05;4.35;;;-0.50;99.90;;;;;;5028140;28;20021;-88
2022/02/28 05:34:41;;;;;;;10.10;4.85;;;-0.50;99.90;;;;;;5014204;28;20033;-88
2022/02/28 05:37:07;;;;;;;9.88;4.28;;;-0.50;99.90;;;;;;5011100;28;20049;-89
2022/02/28 05:39:33;;;;;;;10.00;4.72;;;-0.50;99.90;;;;;;5010358;28;20042;-88
2022/02/28 05:41:58;;;;;;;9.23;4.60;;;-0.50;99.90;;;;;;5014165;28;20137;-88
2022/02/28 05:44:24;;;;;;;9.02;4.35;;;-0.50;99.90;;;;;;5033966;28;20057;-88
2022/02/28 05:46:49;;;;;;;11.02;5.10;;;-0.50;99.90;;;;;;5015210;28;20030;-88
2022/02/28 05:49:15;;;;;;;12.32;4.82;;;-0.50;99.90;;;;;;5016424;28;20025;-88
2022/02/28 05:51:40;;;;;;;13.60;5.10;;;-0.50;99.90;;;;;;5018363;28;20026;-88
2022/02/28 05:54:06;;;;;;;11.85;5.28;;;-0.60;99.90;;;;;;5013769;28;20063;-89
2022/02/28 05:56:32;;;;;;;12.88;5.07;;;-0.60;99.90;;;;;;5010017;28;20025;-89
2022/02/28 05:58:58;;;;;;;10.95;5.20;;;-0.60;99.90;;;;;;5016325;28;20040;-89
2022/02/28 06:01:23;;;;;;;14.40;4.85;;;-0.60;99.90;;;;;;5015243;28;20021;-89
2022/02/28 06:03:49;;;;;;;9.07;5.00;;;-0.70;99.90;;;;;;5017167;28;20115;-88
2022/02/28 06:06:14;;;;;;;11.32;5.00;;;-0.70;99.90;;;;;;5017271;28;20117;-89
2022/02/28 06:08:40;;;;;;;15.30;5.47;;;-0.70;99.90;;;;;;5017576;28;20025;-89
2022/02/28 06:11:06;;;;;;;10.15;5.50;;;-0.60;99.90;;;;;;5017983;28;20087;-88
2022/02/28 06:13:31;;;;;;;13.23;5.38;;;-0.60;99.90;;;;;;5019712;28;20033;-88
2022/02/28 06:15:59;;;;;;;11.32;5.30;;;-0.60;99.90;;;;;;5037481;28;20054;-90
2022/02/28 06:18:25;;;;;;;11.00;5.15;;;-0.60;99.90;;;;;;5028310;28;20072;-88
2022/02/28 06:21:00;;;;;;;12.52;5.40;;;-0.60;99.90;;;;;;5057248;28;20780;-81
2022/02/28 06:23:26;;;;;;;13.98;6.03;;;-0.60;99.90;;;;;;5069635;28;20028;-82
2022/02/28 06:25:51;;;;;;;9.93;4.97;;;-0.70;99.90;;;;;;5048888;28;20107;-82
2022/02/28 06:28:20;;;;;;;12.80;5.45;;;-0.70;99.90;;;;;;5052328;28;20021;-81
2022/02/28 06:30:46;;;;;;;14.07;5.63;;;-0.70;99.90;;;;;;5046155;28;20049;-81
2022/02/28 06:33:11;;;;;;;14.95;5.43;;;-0.80;99.90;;;;;;5043725;28;20512;-81
2022/02/28 06:35:37;;;;;;;13.77;6.30;;;-0.70;99.90;;;;;;5044633;28;20367;-81
2022/02/28 06:38:03;;;;;;;13.25;5.45;;;-0.70;99.90;;;;;;5043394;28;20112;-82
2022/02/28 06:40:29;;;;;;;12.93;5.78;;;-0.70;99.90;;;;;;5041870;28;20044;-82
2022/02/28 06:42:54;;;;;;;13.80;5.80;;;-0.70;99.90;;;;;;5046562;28;20382;-81
2022/02/28 06:45:24;;;;;;;11.30;5.47;;;-0.70;99.90;;;;;;5049262;28;20029;-81
2022/02/28 06:47:53;;;;;;;12.65;6.07;;;-0.70;99.90;;;;;;5048403;28;20053;-83
2022/02/28 06:50:18;;;;;;;15.50;6.32;;;-0.70;99.90;;;;;;5032826;28;20363;-83
2022/02/28 06:52:44;;;;;;;10.52;5.43;;;-0.60;99.90;;;;;;5038475;28;20028;-82
2022/02/28 06:55:09;;;;;;;11.05;6.18;;;-0.60;99.90;;;;;;5042176;28;20060;-83
2022/02/28 06:57:35;;;;;;;10.57;6.60;;;-0.60;99.90;;;;;;5039522;28;20017;-83
2022/02/28 07:00:00;;;;;;;11.85;5.78;;;-0.60;99.90;;;;;;5047342;28;20044;-84
2022/02/28 07:02:26;;;;;;;13.65;6.13;;;-0.60;99.90;;;;;;5042160;28;20027;-83
2022/02/28 07:04:51;;;;;;;18.05;5.75;;;-0.60;99.90;;;;;;5043706;28;20117;-83
2022/02/28 07:07:18;;;;;;;13.18;6.47;;;-0.60;99.90;;;;;;5048600;28;20108;-83
2022/02/28 07:09:45;;;;;;;13.73;6.25;;;-0.60;99.90;;;;;;5049334;28;20029;-82
2022/02/28 07:12:12;;;;;;;11.82;6.22;;;-0.50;99.90;;;;;;5029131;28;20121;-83
2022/02/28 07:14:38;;;;;;;18.08;6.15;;;-0.40;99.90;;;;;;5029605;28;20037;-83
2022/02/28 07:17:04;;;;;;;13.18;6.55;;;-0.40;99.90;;;;;;5043458;28;20029;-83
2022/02/28 07:19:29;;;;;;;14.55;6.15;;;-0.30;99.90;;;;;;5045756;28;20408;-83
2022/02/28 07:21:56;;;;;;;16.10;6.55;;;-0.30;99.90;;;;;;5036379;28;20033;-83
2022/02/28 07:24:22;;;;;;;11.88;5.97;;;-0.20;99.90;;;;;;5046947;28;20037;-82
2022/02/28 07:26:48;;;;;;;13.23;6.40;;;-0.10;99.90;;;;;;5037959;28;20026;-83
2022/02/28 07:29:14;;;;;;;12.98;6.68;;;0.00;99.90;;;;;;5036791;28;20079;-83
2022/02/28 07:31:39;;;;;;;15.07;6.65;;;0.10;99.90;;;;;;5039957;28;20477;-83
2022/02/28 07:34:05;;;;;;;14.18;5.95;;;0.20;99.90;;;;;;5029104;28;20034;-83
2022/02/28 07:36:30;;;;;;;11.50;5.95;;;0.20;99.90;;;;;;5036340;28;20018;-82
2022/02/28 07:38:56;;;;;;;16.23;7.40;;;0.30;99.90;;;;;;5034894;28;20481;-83
2022/02/28 07:41:21;;;;;;;13.82;6.13;;;0.50;99.90;;;;;;5025722;28;20037;-83
2022/02/28 07:43:47;;;;;;;12.85;6.75;;;0.50;99.90;;;;;;5033770;28;20022;-83
2022/02/28 07:46:12;;;;;;;11.95;6.13;;;0.60;99.90;;;;;;5029204;28;20042;-84
2022/02/28 07:48:38;;;;;;;13.77;7.05;;;0.70;99.90;;;;;;5023709;28;20035;-83
2022/02/28 07:51:04;;;;;;;9.93;6.03;;;0.80;99.90;;;;;;5020557;28;20483;-83
2022/02/28 07:53:30;;;;;;;11.70;6.22;;;0.90;99.90;;;;;;5027447;28;20025;-83
2022/02/28 07:55:55;;;;;;;12.20;6.68;;;1.00;99.90;;;;;;5020442;28;20132;-82
2022/02/28 07:58:21;;;;;;;12.57;6.43;;;1.00;99.90;;;;;;5034505;28;20037;-83
2022/02/28 08:00:46;;;;;;;13.57;7.35;;;1.20;99.90;;;;;;5029134;28;20052;-82
2022/02/28 08:03:12;;;;;;;13.52;6.80;;;1.30;99.90;;;;;;5030305;28;20108;-83
2022/02/28 08:05:37;;;;;;;18.23;6.45;;;1.40;99.90;;;;;;5028533;28;20018;-82
2022/02/28 08:08:03;;;;;;;14.68;6.78;;;1.50;99.90;;;;;;5032879;28;20087;-83
2022/02/28 08:10:29;;;;;;;12.45;6.28;;;1.60;99.90;;;;;;5031353;28;20040;-83
2022/02/28 08:12:56;;;;;;;16.42;6.57;;;1.70;99.90;;;;;;5026961;28;20485;-82
2022/02/28 08:15:22;;;;;;;12.40;6.78;;;1.80;99.90;;;;;;5032208;28;20060;-83
2022/02/28 08:17:48;;;;;;;14.23;7.53;;;1.90;99.90;;;;;;5027605;28;20079;-84
2022/02/28 08:20:13;;;;;;;12.98;6.40;;;2.00;99.90;;;;;;5032263;28;20410;-83
2022/02/28 08:22:39;;;;;;;10.30;6.20;;;2.10;99.90;;;;;;5020165;28;20046;-84
2022/02/28 08:25:05;;;;;;;11.18;5.70;;;2.20;99.90;;;;;;5027846;28;20029;-84
2022/02/28 08:27:31;;;;;;;10.65;6.63;;;2.30;99.90;;;;;;5016564;28;20069;-84
2022/02/28 08:29:56;;;;;;;13.05;6.80;;;2.40;99.90;;;;;;5022739;28;20053;-83
2022/02/28 08:32:22;;;;;;;11.95;6.55;;;2.50;99.90;;;;;;5031322;28;20037;-84
2022/02/28 08:34:47;;;;;;;14.18;6.88;;;2.60;99.90;;;;;;5021552;28;20107;-83
2022/02/28 08:37:13;;;;;;;10.95;6.47;;;2.70;99.90;;;;;;5021702;28;20026;-84
2022/02/28 08:39:38;;;;;;;12.85;6.10;;;2.70;99.90;;;;;;5025933;28;20033;-85
2022/02/28 08:42:04;;;;;;;14.35;6.82;;;2.80;99.90;;;;;;5030130;28;20033;-84
2022/02/28 08:44:30;;;;;;;14.00;6.93;;;2.90;99.90;;;;;;5022044;28;20052;-84
2022/02/28 08:46:55;;;;;;;12.60;6.22;;;3.00;99.90;;;;;;5029497;28;20026;-84
2022/02/28 08:49:21;;;;;;;12.30;5.70;;;3.10;99.90;;;;;;5031686;28;20401;-84
2022/02/28 08:51:47;;;;;;;13.52;6.80;;;3.20;99.90;;;;;;5031294;28;20029;-84
2022/02/28 08:54:13;;;;;;;14.13;6.65;;;3.30;99.90;;;;;;5022333;28;20033;-85
2022/02/28 08:56:39;;;;;;;14.27;6.95;;;3.30;99.90;;;;;;5032673;28;20428;-84
2022/02/28 08:59:05;;;;;;;10.85;6.18;;;3.40;99.90;;;;;;5031630;28;20102;-84
2022/02/28 09:01:31;;;;;;;9.77;5.30;;;3.60;99.90;;;;;;5030201;28;20515;-85
2022/02/28 09:03:59;;;;;;;13.02;6.47;;;3.70;99.90;;;;;;5035144;28;20025;-85
2022/02/28 09:06:25;;;;;;;10.63;6.40;;;3.80;99.90;;;;;;5032340;28;20771;-84
2022/02/28 09:08:50;;;;;;;12.68;6.60;;;3.90;99.90;;;;;;5031809;28;20036;-84
2022/02/28 09:11:16;;;;;;;15.02;6.88;;;4.00;99.90;;;;;;5029858;28;20033;-85
2022/02/28 09:13:42;;;;;;;14.20;7.18;;;4.10;99.90;;;;;;5032123;28;20048;-85
2022/02/28 09:16:08;;;;;;;12.32;6.07;;;4.20;99.90;;;;;;5041066;28;20069;-86
2022/02/28 09:18:33;;;;;;;11.93;6.72;;;4.20;99.90;;;;;;5033542;28;20076;-85
2022/02/28 09:21:00;;;;;;;13.27;6.40;;;4.30;99.90;;;;;;5033432;28;20045;-86
2022/02/28 09:23:25;;;;;;;11.77;5.78;;;4.30;99.90;;;;;;5036336;28;20033;-86
2022/02/28 09:25:51;;;;;;;12.75;6.35;;;4.50;99.90;;;;;;5029368;28;20037;-85
2022/02/28 09:28:16;;;;;;;14.82;6.60;;;4.50;99.90;;;;;;5036153;28;20507;-86
2022/02/28 09:30:43;;;;;;;12.68;6.47;;;4.60;99.90;;;;;;5023087;28;20036;-86
2022/02/28 09:33:08;;;;;;;11.27;5.88;;;4.70;99.90;;;;;;5033749;28;20055;-86
2022/02/28 09:35:34;;;;;;;14.60;6.63;;;4.80;99.90;;;;;;5035922;28;20032;-85
2022/02/28 09:37:59;;;;;;;15.65;6.03;;;4.80;99.90;;;;;;5034433;28;20033;-86
2022/02/28 09:40:30;;;;;;;10.70;5.82;;;5.00;99.90;;;;;;5035051;28;20084;-85
2022/02/28 09:42:59;;;;;;;8.93;5.38;;;5.10;99.90;;;;;;5029109;28;20057;-86
2022/02/28 09:45:25;;;;;;;9.60;5.65;;;5.10;99.90;;;;;;5027808;28;21357;-86
2022/02/28 09:47:51;;;;;;;10.73;5.88;;;5.20;99.90;;;;;;5033725;28;20018;-86
2022/02/28 09:50:18;;;;;;;15.00;6.38;;;5.30;99.90;;;;;;5035864;28;20033;-86
2022/02/28 09:52:43;;;;;;;11.18;6.20;;;5.30;99.90;;;;;;5035560;28;20076;-85
2022/02/28 09:55:10;;;;;;;9.23;5.90;;;5.40;99.90;;;;;;5028435;28;20038;-86
2022/02/28 09:57:37;;;;;;;9.68;5.55;;;5.50;99.90;;;;;;5033506;28;20029;-85
2022/02/28 10:00:03;;;;;;;10.50;5.88;;;5.60;99.90;;;;;;5033365;28;20067;-86
2022/02/28 10:02:29;;;;;;;9.05;5.15;;;5.60;99.90;;;;;;5033366;28;20022;-85
2022/02/28 10:04:56;;;;;;;9.48;5.75;;;5.70;99.90;;;;;;5029581;28;20477;-86
2022/02/28 10:07:24;;;;;;;13.80;5.82;;;5.80;99.90;;;;;;5028497;28;20074;-84
2022/02/28 10:10:10;;;;;;;10.32;4.97;;;5.80;99.90;;;;;;5020738;28;20044;-85
2022/02/28 10:12:36;;;;;;;8.23;5.50;;;5.90;99.90;;;;;;5025507;28;20036;-85
2022/02/28 10:15:15;;;;;;;9.40;5.05;;;6.00;99.90;;;;;;5032711;28;20043;-85
2022/02/28 10:17:51;;;;;;;11.23;5.35;;;6.10;99.90;;;;;;5022578;28;20022;-85
2022/02/28 10:20:37;;;;;;;10.70;6.22;;;6.20;99.90;;;;;;5030565;28;20095;-85
2022/02/28 10:23:08;;;;;;;9.35;5.15;;;6.20;99.90;;;;;;5033405;28;20025;-85
2022/02/28 10:25:42;;;;;;;9.68;5.10;;;6.20;99.50;;;;;;5032351;28;20037;-84
2022/02/28 10:28:14;;;;;;;9.77;5.60;;;6.30;98.30;;;;;;5032452;28;20021;-84
2022/02/28 10:31:09;;;;;;;9.25;5.63;;;6.30;98.50;;;;;;5035240;28;20030;-84
2022/02/28 10:33:41;;;;;;;11.00;5.22;;;6.40;98.70;;;;;;5030133;28;20026;-83
2022/02/28 10:36:17;;;;;;;12.88;6.10;;;6.40;98.10;;;;;;5033241;28;20064;-83
2022/02/28 10:38:51;;;;;;;12.45;5.40;;;6.50;98.40;;;;;;5028473;28;20078;-84
2022/02/28 10:41:18;;;;;;;11.35;5.78;;;6.60;98.00;;;;;;5031890;28;20385;-84
2022/02/28 10:43:45;;;;;;;8.60;5.57;;;6.70;97.30;;;;;;5031795;28;20025;-84
2022/02/28 10:46:21;;;;;;;11.13;6.55;;;6.70;97.00;;;;;;5017311;28;20032;-84
2022/02/28 10:49:19;;;;;;;9.15;5.07;;;6.90;96.10;;;;;;5012145;28;20034;-84
2022/02/28 10:51:55;;;;;;;11.43;6.50;;;6.90;95.50;;;;;;5023660;28;20062;-85
2022/02/28 10:54:29;;;;;;;9.27;5.80;;;7.00;95.80;;;;;;5030568;28;20465;-85
2022/02/28 10:57:18;;;;;;;10.95;5.97;;;7.10;95.30;;;;;;5032057;28;20026;-84
2022/02/28 10:59:45;;;;;;;10.15;5.28;;;7.10;95.20;;;;;;5031506;28;20042;-83
2022/02/28 11:02:20;;;;;;;12.98;5.40;;;7.20;95.10;;;;;;5030784;28;20051;-83
2022/02/28 11:04:46;;;;;;;8.30;4.68;;;7.30;95.20;;;;;;5031771;28;20117;-83
2022/02/28 11:07:22;;;;;;;8.68;4.75;;;7.40;94.20;;;;;;5034258;28;20113;-83
2022/02/28 11:09:48;;;;;;;9.82;5.07;;;7.40;93.40;;;;;;5015927;28;20029;-84
2022/02/28 11:12:20;;;;;;;7.88;5.53;;;7.50;93.20;;;;;;5027753;28;20096;-84
2022/02/28 11:14:47;;;;;;;9.25;5.45;;;7.50;93.20;;;;;;5034990;28;20029;-84
2022/02/28 11:17:18;;;;;;;8.35;5.43;;;7.60;92.90;;;;;;5033575;28;20076;-86
2022/02/28 11:19:47;;;;;;;12.18;5.85;;;7.70;92.80;;;;;;5017375;28;20052;-85
2022/02/28 11:22:13;;;;;;;9.80;5.75;;;7.70;92.90;;;;;;5029804;28;20029;-85
2022/02/28 11:24:39;;;;;;;7.50;4.43;;;7.80;92.30;;;;;;5035098;28;20007;-85
2022/02/28 11:27:06;;;;;;;10.68;6.10;;;7.90;91.60;;;;;;5036229;28;20029;-84
2022/02/28 11:29:32;;;;;;;9.90;5.07;;;7.90;91.10;;;;;;5036639;28;20026;-85
2022/02/28 11:31:59;;;;;;;10.90;5.28;;;8.00;90.80;;;;;;5026532;28;20034;-85
2022/02/28 11:34:25;;;;;;;7.18;4.25;;;8.10;88.30;;;;;;5016567;28;20029;-85
2022/02/28 11:36:55;;;;;;;10.82;5.32;;;8.10;88.40;;;;;;5016517;28;20096;-86
2022/02/28 11:39:31;;;;;;;12.25;4.28;;;8.10;86.70;;;;;;5025191;28;20507;-85
2022/02/28 11:41:58;;;;;;;9.93;4.88;;;8.20;87.30;;;;;;5033426;28;20120;-86
2022/02/28 11:44:24;;;;;;;9.32;5.28;;;8.30;86.20;;;;;;5036750;28;20030;-85
2022/02/28 11:47:01;;;;;;;9.07;4.50;;;8.30;85.30;;;;;;5034710;28;20540;-85
2022/02/28 11:49:37;;;;;;;11.45;5.20;;;8.30;85.60;;;;;;5030164;28;20053;-85
2022/02/28 11:52:28;;;;;;;9.95;5.30;;;8.40;84.40;;;;;;5035292;28;20025;-85
2022/02/28 11:55:04;;;;;;;7.97;5.13;;;8.50;85.50;;;;;;5025086;28;20025;-85
2022/02/28 11:57:54;;;;;;;9.35;4.50;;;8.50;85.30;;;;;;5037142;28;20037;-83
2022/02/28 12:00:46;;;;;;;7.18;4.35;;;8.60;83.80;;;;;;5018332;28;20486;-83
2022/02/28 12:03:29;;;;;;;7.13;5.13;;;8.70;82.30;;;;;;5021109;28;20025;-86
2022/02/28 12:05:55;;;;;;;9.75;4.95;;;8.70;81.60;;;;;;5038420;28;20033;-85
2022/02/28 12:08:38;;;;;;;9.93;4.82;;;8.70;80.80;;;;;;5037339;28;20032;-84
2022/02/28 12:11:20;;;;;;;8.63;4.55;;;8.80;79.60;;;;;;5032894;28;20029;-85
2022/02/28 12:14:01;;;;;;;8.13;4.55;;;8.80;79.90;;;;;;5017016;28;20033;-85
2022/02/28 12:19:33;;;;;;;9.27;5.30;;;8.90;78.80;;;;;;5035842;28;20067;-86
2022/02/28 12:22:04;;;;;;;9.57;5.72;;;8.90;78.50;;;;;;5029579;28;20024;-86
2022/02/28 12:25:07;;;;;;;9.75;5.78;;;9.00;77.80;;;;;;5036771;28;20057;-86
2022/02/28 12:27:37;;;;;;;8.73;5.03;;;9.00;77.10;;;;;;5033246;28;20034;-85
2022/02/28 12:30:44;;;;;;;10.32;5.22;;;9.10;76.90;;;;;;5021705;28;20068;-85
2022/02/28 12:33:14;;;;;;;8.90;5.55;;;9.10;77.40;;;;;;5029477;28;20041;-85
2022/02/28 12:35:49;;;;;;;9.65;5.38;;;9.20;77.60;;;;;;5034567;28;20021;-84
2022/02/28 12:38:15;;;;;;;9.80;5.38;;;9.30;76.20;;;;;;5033571;28;20030;-85
2022/02/28 12:40:55;;;;;;;9.63;5.50;;;9.30;75.90;;;;;;5035128;28;20037;-85
2022/02/28 12:43:23;;;;;;;11.77;5.22;;;9.40;75.70;;;;;;5018450;28;20017;-85
2022/02/28 12:45:50;;;;;;;7.50;4.68;;;9.40;74.40;;;;;;5031096;28;20034;-85
2022/02/28 12:48:18;;;;;;;9.05;5.70;;;9.50;74.00;;;;;;5024791;28;20022;-86
2022/02/28 12:50:46;;;;;;;7.82;4.60;;;9.60;74.40;;;;;;5026546;28;20022;-86
2022/02/28 12:53:14;;;;;;;9.13;4.82;;;9.60;73.20;;;;;;5017187;28;20469;-86
2022/02/28 12:55:48;;;;;;;9.25;5.65;;;9.60;72.70;;;;;;5036116;28;20024;-86